Avenal, California
Current Conditions -  °F | °C
As of 7:56 AM on Monday 26 Jan 2015 (Local Time) from KNLC Reporting Station
Moderate Fog Moderate Fog  
Wind Chill: 32°   Ceiling: 200
Heat Index: 36°   Visibility: 0.12mi
Dew Point: 36°   Wind: 5mph
Humidity: 100%   Direction: 260°W
Pressure: 30.06"   Gusts: NA
Location:  36°N, 120.13°W
Report Text: KNLC 261556Z 26004KT 1/8SM FG VV002 02/02 A3006 RMK AO2 SLP180 FIRST T00220022 RVRNO $
Loading
Personal Weather Stations






























Interactive Weather Map New forecast layout! Learn more

10-Day Weather Forecast

Advertisements
Track Severe Weather on mobile